Time;durP1;ratioP1;P1;durP2;ratioP2;P2;SDS_P1;SDS_P2;PMS_P1;PMS_P2;Temp;Humidity;BMP_temperature;BMP_pressure;BME280_temperature;BME280_humidity;BME280_pressure;Samples;Min_cycle;Max_cycle;Signal;HPM_P1;HPM_P2
2022/12/21 04:33:08;;;;;;;29.27;18.53;;;;;;;;;;4259330;27;20303;-46
2022/12/21 04:34:08;;;;;;;28.00;16.50;;;;;;;;;;2129951;27;20047;-46
2022/12/21 04:35:10;;;;;;;95.07;38.80;;;;;;;;;;2129786;27;20050;-45
2022/12/21 04:37:34;;;;;;;256.08;85.63;;;;;;;;;;2129905;27;20070;-45
2022/12/21 04:38:36;;;;;;;330.35;119.18;;;;;;;;;;2129736;27;20045;-45
2022/12/21 04:39:37;;;;;;;218.48;71.38;;;;;;;;;;2128475;27;20059;-45
2022/12/21 04:40:38;;;;;;;274.50;97.63;;;;;;;;;;2121339;28;20479;-40
2022/12/21 04:41:39;;;;;;;132.60;45.70;;;;;;;;;;2121206;28;20126;-41
2022/12/21 04:42:40;;;;;;;89.10;38.92;;;;;;;;;;2121210;28;20043;-41
2022/12/21 04:43:41;;;;;;;155.83;60.07;;;;;;;;;;2121364;28;20135;-42
2022/12/21 04:44:42;;;;;;;132.85;52.25;;;;;;;;;;2121152;28;20399;-42
2022/12/21 04:45:43;;;;;;;148.05;53.60;;;;;;;;;;2121166;28;20045;-42
2022/12/21 04:46:44;;;;;;;74.85;34.47;;;;;;;;;;2121080;28;20682;-42
2022/12/21 04:47:46;;;;;;;75.78;33.28;;;;;;;;;;2121188;28;20063;-42
2022/12/21 04:48:47;;;;;;;44.13;21.15;;;;;;;;;;2121220;28;20054;-42
2022/12/21 04:49:48;;;;;;;66.18;32.97;;;;;;;;;;2121083;28;20403;-42
2022/12/21 04:50:49;;;;;;;76.05;37.80;;;;;;;;;;2121184;28;20348;-43
2022/12/21 04:51:50;;;;;;;41.77;22.90;;;;;;;;;;2121103;28;20385;-43
2022/12/21 04:52:51;;;;;;;69.78;34.88;;;;;;;;;;2121239;28;20100;-42
2022/12/21 04:53:53;;;;;;;39.00;23.05;;;;;;;;;;2121199;28;20051;-43
2022/12/21 04:54:54;;;;;;;35.50;20.83;;;;;;;;;;2121017;28;20126;-42
2022/12/21 04:55:55;;;;;;;31.08;18.95;;;;;;;;;;2121180;28;20051;-43
2022/12/21 04:56:56;;;;;;;34.55;19.35;;;;;;;;;;2123731;27;20062;-43
2022/12/21 04:57:57;;;;;;;32.43;16.87;;;;;;;;;;2129698;27;20126;-43
2022/12/21 04:58:58;;;;;;;31.63;19.40;;;;;;;;;;2129645;27;20050;-43
2022/12/21 04:59:59;;;;;;;33.13;20.25;;;;;;;;;;2129823;27;20091;-43
2022/12/21 05:01:01;;;;;;;34.90;20.23;;;;;;;;;;2129550;27;20751;-48
2022/12/21 05:02:03;;;;;;;31.27;18.45;;;;;;;;;;2129573;27;20051;-46
2022/12/21 05:03:04;;;;;;;28.75;16.05;;;;;;;;;;2129701;27;20050;-48
2022/12/21 05:04:07;;;;;;;28.80;17.70;;;;;;;;;;2129624;27;20051;-46
2022/12/21 05:05:08;;;;;;;33.72;19.67;;;;;;;;;;2129533;27;20043;-46
2022/12/21 05:06:10;;;;;;;37.10;21.73;;;;;;;;;;2129565;27;20382;-48
2022/12/21 05:07:11;;;;;;;;;;;;;;;;;;2130043;27;20074;-46
2022/12/21 05:08:12;;;;;;;31.55;16.38;;;;;;;;;;2129536;27;20364;-46
2022/12/21 05:09:22;;;;;;;35.60;20.40;;;;;;;;;;2129505;27;20564;-46
2022/12/21 05:10:23;;;;;;;34.70;20.52;;;;;;;;;;2129545;27;20484;-46
2022/12/21 05:11:24;;;;;;;33.63;19.95;;;;;;;;;;2129443;27;20046;-46
2022/12/21 05:12:26;;;;;;;33.72;18.33;;;;;;;;;;2129584;27;20039;-46
2022/12/21 05:13:27;;;;;;;35.23;19.77;;;;;;;;;;2129653;27;20051;-44
2022/12/21 05:14:28;;;;;;;36.08;20.35;;;;;;;;;;2129619;27;20107;-45
2022/12/21 05:15:30;;;;;;;36.42;19.10;;;;;;;;;;2129646;27;20042;-46
2022/12/21 05:16:31;;;;;;;33.08;20.75;;;;;;;;;;2129429;27;20487;-45
2022/12/21 05:17:32;;;;;;;32.83;18.63;;;;;;;;;;2129637;27;20042;-45
2022/12/21 05:18:33;;;;;;;35.00;18.13;;;;;;;;;;2126939;27;20055;-44
2022/12/21 05:19:35;;;;;;;36.63;20.05;;;;;;;;;;2129496;27;20039;-46
2022/12/21 05:20:36;;;;;;;35.90;21.20;;;;;;;;;;2129616;27;20047;-45
2022/12/21 05:21:37;;;;;;;30.97;17.83;;;;;;;;;;2129595;27;20490;-42
2022/12/21 05:22:38;;;;;;;35.00;20.15;;;;;;;;;;2129412;27;20066;-41
2022/12/21 05:23:40;;;;;;;36.08;20.88;;;;;;;;;;2129472;27;20096;-41
2022/12/21 05:24:40;;;;;;;37.08;21.60;;;;;;;;;;2129412;27;20504;-41
2022/12/21 05:25:42;;;;;;;37.80;21.80;;;;;;;;;;2129509;27;20058;-41
2022/12/21 05:26:42;;;;;;;38.55;20.60;;;;;;;;;;2129476;27;20051;-41
2022/12/21 05:27:44;;;;;;;35.60;22.02;;;;;;;;;;2129449;27;20058;-41
2022/12/21 05:28:45;;;;;;;35.25;21.27;;;;;;;;;;2129579;27;20116;-41
2022/12/21 05:29:46;;;;;;;35.00;22.25;;;;;;;;;;2129412;27;20507;-41
2022/12/21 05:30:47;;;;;;;40.92;24.40;;;;;;;;;;2128939;27;20035;-41
2022/12/21 05:31:48;;;;;;;39.75;22.85;;;;;;;;;;2129192;27;20054;-41
2022/12/21 05:32:49;;;;;;;32.83;20.30;;;;;;;;;;2125379;27;20032;-42
2022/12/21 05:33:51;;;;;;;32.05;19.80;;;;;;;;;;2123763;28;20058;-41
2022/12/21 05:34:52;;;;;;;35.15;20.90;;;;;;;;;;2123729;28;20044;-41
2022/12/21 05:35:54;;;;;;;37.83;22.40;;;;;;;;;;2123714;28;20391;-41
2022/12/21 05:36:54;;;;;;;36.28;20.63;;;;;;;;;;2123442;28;20483;-41
2022/12/21 05:37:56;;;;;;;35.42;21.63;;;;;;;;;;2123715;28;20055;-42
2022/12/21 05:38:57;;;;;;;40.45;22.83;;;;;;;;;;2123941;28;20047;-45
2022/12/21 05:39:58;;;;;;;73.22;38.50;;;;;;;;;;2123534;28;20047;-46
2022/12/21 05:40:59;;;;;;;87.13;39.10;;;;;;;;;;2123781;28;20055;-46
2022/12/21 05:42:01;;;;;;;72.63;38.70;;;;;;;;;;2123572;28;20290;-46
2022/12/21 05:43:02;;;;;;;57.67;32.30;;;;;;;;;;2123486;28;20100;-46
2022/12/21 05:44:04;;;;;;;62.50;34.97;;;;;;;;;;2123572;28;20043;-46
2022/12/21 05:45:05;;;;;;;59.88;31.55;;;;;;;;;;2123612;28;20043;-46
2022/12/21 05:46:08;;;;;;;56.80;33.10;;;;;;;;;;2123467;28;20488;-46
2022/12/21 05:47:09;;;;;;;66.00;35.47;;;;;;;;;;2123809;28;20133;-42
2022/12/21 05:48:10;;;;;;;68.57;36.22;;;;;;;;;;2123598;28;20047;-43
2022/12/21 05:49:11;;;;;;;59.00;33.55;;;;;;;;;;2123762;28;20078;-42
2022/12/21 05:50:13;;;;;;;69.32;35.28;;;;;;;;;;2123660;28;20047;-42
2022/12/21 05:51:14;;;;;;;61.78;31.10;;;;;;;;;;2123553;28;20047;-42
2022/12/21 05:52:15;;;;;;;55.30;30.42;;;;;;;;;;2123626;28;20051;-42
2022/12/21 05:53:16;;;;;;;48.22;25.17;;;;;;;;;;2123583;28;20133;-43
2022/12/21 05:54:17;;;;;;;41.15;22.98;;;;;;;;;;2123678;28;20047;-43
2022/12/21 05:55:18;;;;;;;42.17;23.00;;;;;;;;;;2123717;28;20047;-46
2022/12/21 05:56:20;;;;;;;37.53;22.52;;;;;;;;;;2123497;28;20487;-46
2022/12/21 05:57:20;;;;;;;33.83;20.52;;;;;;;;;;2123517;28;20131;-46
2022/12/21 05:58:22;;;;;;;35.47;22.05;;;;;;;;;;2123393;28;20308;-47
2022/12/21 05:59:23;;;;;;;35.05;22.33;;;;;;;;;;2123594;28;20156;-46
2022/12/21 06:00:24;;;;;;;39.28;23.23;;;;;;;;;;2123585;28;20051;-49
2022/12/21 06:01:25;;;;;;;45.40;23.20;;;;;;;;;;2123324;28;20448;-46
2022/12/21 06:02:26;;;;;;;37.15;22.70;;;;;;;;;;2123887;28;20534;-43
2022/12/21 06:03:28;;;;;;;39.70;21.23;;;;;;;;;;2123648;28;20050;-42
2022/12/21 06:04:30;;;;;;;40.92;22.40;;;;;;;;;;2123347;28;20047;-43
2022/12/21 06:05:30;;;;;;;;;;;;;;;;;;2124114;28;20161;-43
2022/12/21 06:06:32;;;;;;;45.58;22.40;;;;;;;;;;2123659;28;19919;-43
2022/12/21 06:07:34;;;;;;;39.70;22.48;;;;;;;;;;2123685;28;20130;-43
2022/12/21 06:08:35;;;;;;;36.65;21.73;;;;;;;;;;2123522;28;20047;-43
2022/12/21 06:09:36;;;;;;;36.70;21.80;;;;;;;;;;2123563;28;20058;-42
2022/12/21 06:10:37;;;;;;;36.55;22.00;;;;;;;;;;2123426;28;20055;-42
2022/12/21 06:11:38;;;;;;;77.70;36.75;;;;;;;;;;2123401;28;20051;-42
2022/12/21 06:12:39;;;;;;;59.80;30.15;;;;;;;;;;2123536;28;20035;-42
2022/12/21 06:13:41;;;;;;;144.02;64.00;;;;;;;;;;2123352;28;20123;-42
2022/12/21 06:14:42;;;;;;;125.70;59.20;;;;;;;;;;2123559;28;20471;-42
2022/12/21 06:15:43;;;;;;;107.93;49.47;;;;;;;;;;2123686;28;20047;-42
2022/12/21 06:16:45;;;;;;;107.13;44.72;;;;;;;;;;2123451;28;20547;-41
2022/12/21 06:17:46;;;;;;;139.45;60.83;;;;;;;;;;2123399;28;20070;-41
2022/12/21 06:18:47;;;;;;;131.75;58.63;;;;;;;;;;2123790;28;20047;-45
2022/12/21 06:19:49;;;;;;;107.63;49.83;;;;;;;;;;2122068;28;20047;-46
2022/12/21 06:20:50;;;;;;;100.07;48.22;;;;;;;;;;2114947;28;20043;-42
2022/12/21 06:21:52;;;;;;;97.47;46.20;;;;;;;;;;2114837;28;20043;-42
2022/12/21 06:22:53;;;;;;;115.25;53.42;;;;;;;;;;2114607;28;20054;-42
2022/12/21 06:23:54;;;;;;;87.00;42.33;;;;;;;;;;2114234;28;20094;-45
2022/12/21 06:24:55;;;;;;;107.35;48.90;;;;;;;;;;2114375;28;20101;-46
2022/12/21 06:25:56;;;;;;;83.67;39.53;;;;;;;;;;2114351;28;20051;-45
2022/12/21 06:26:57;;;;;;;59.00;32.85;;;;;;;;;;2114527;28;20047;-41
2022/12/21 06:27:58;;;;;;;46.97;26.25;;;;;;;;;;2114393;28;20063;-41
2022/12/21 06:28:59;;;;;;;66.75;33.97;;;;;;;;;;2114497;28;20079;-45
2022/12/21 06:30:00;;;;;;;50.35;28.58;;;;;;;;;;2114646;28;20403;-43
2022/12/21 06:31:02;;;;;;;45.72;24.85;;;;;;;;;;2113904;28;20131;-42
2022/12/21 06:32:03;;;;;;;40.50;22.90;;;;;;;;;;2114630;28;20052;-44
2022/12/21 06:33:04;;;;;;;39.00;22.35;;;;;;;;;;2114882;28;20109;-44
2022/12/21 06:34:05;;;;;;;47.67;25.47;;;;;;;;;;2114897;28;20446;-41
